createdAt,value
2019-02-14T00:02:05.986Z,96274.98
2019-02-14T00:04:34.520Z,96281.34
2019-02-14T00:07:02.993Z,96269.85
2019-02-14T00:09:31.620Z,96276.15
2019-02-14T00:12:00.129Z,96281.86
2019-02-14T00:14:28.743Z,96278.39
2019-02-14T00:16:57.367Z,96283.67
2019-02-14T00:19:25.884Z,96272.61
2019-02-14T00:21:54.489Z,96270.94
2019-02-14T00:24:23.186Z,96267.23
2019-02-14T00:26:52.094Z,96265.47
2019-02-14T00:29:20.646Z,96264.91
2019-02-14T00:31:49.201Z,96262.23
2019-02-14T00:34:17.851Z,96251.74
2019-02-14T00:36:46.472Z,96257.14
2019-02-14T00:39:15.030Z,96255.23
2019-02-14T00:41:43.573Z,96256.02
2019-02-14T00:44:12.201Z,96253.70
2019-02-14T00:46:40.831Z,96256.58
2019-02-14T00:49:09.354Z,96261.39
2019-02-14T00:51:38.018Z,96257.92
2019-02-14T00:54:06.500Z,96255.52
2019-02-14T00:56:35.032Z,96254.59
2019-02-14T00:59:03.650Z,96257.61
2019-02-14T01:01:32.264Z,96255.20
2019-02-14T01:04:00.878Z,96246.69
2019-02-14T01:06:29.430Z,96253.20
2019-02-14T01:08:58.042Z,96248.81
2019-02-14T01:11:26.705Z,96253.58
2019-02-14T01:13:55.190Z,96251.17
2019-02-14T01:16:23.674Z,96248.91
2019-02-14T01:18:52.331Z,96242.66
2019-02-14T01:21:21.001Z,96240.02
2019-02-14T01:23:49.491Z,96239.94
2019-02-14T01:26:18.023Z,96233.46
2019-02-14T01:31:29.474Z,96229.84
2019-02-14T01:33:58.113Z,96236.59
2019-02-14T01:36:26.730Z,96227.63
2019-02-14T01:38:55.342Z,96226.37
2019-02-14T01:41:23.821Z,96229.61
2019-02-14T01:43:52.459Z,96238.13
2019-02-14T01:46:21.137Z,96236.78
2019-02-14T01:48:49.616Z,96235.77
2019-02-14T01:51:18.219Z,96241.92
2019-02-14T01:53:46.872Z,96246.88
2019-02-14T01:56:45.661Z,96231.09
2019-02-14T01:59:14.276Z,96235.77
2019-02-14T02:01:42.827Z,96224.38
2019-02-14T02:04:11.455Z,96234.25
2019-02-14T02:06:40.214Z,96231.25
2019-02-14T02:09:08.872Z,96232.26
2019-02-14T02:11:37.511Z,96230.91
2019-02-14T02:14:06.380Z,96224.34
2019-02-14T02:16:35.002Z,96219.61
2019-02-14T02:19:03.699Z,96222.72
2019-02-14T02:21:32.366Z,96213.32
2019-02-14T02:24:00.870Z,96199.11
2019-02-14T02:26:29.423Z,96212.92
2019-02-14T02:28:58.267Z,96214.06
2019-02-14T02:31:26.888Z,96208.51
2019-02-14T02:33:55.441Z,96200.36
2019-02-14T02:36:23.967Z,96201.12
2019-02-14T02:38:52.595Z,96196.09
2019-02-14T02:41:21.241Z,96194.30
2019-02-14T02:43:49.745Z,96197.66
2019-02-14T02:46:18.246Z,96192.39
2019-02-14T02:48:46.880Z,96192.95
2019-02-14T02:51:15.483Z,96201.28
2019-02-14T02:53:44.105Z,96202.86
2019-02-14T02:56:12.949Z,96215.27
2019-02-14T02:58:41.652Z,96208.47
2019-02-14T03:01:10.210Z,96222.23
2019-02-14T03:03:38.843Z,96218.47
2019-02-14T03:06:10.702Z,96220.23
2019-02-14T03:08:37.754Z,96215.78
2019-02-14T03:11:06.315Z,96218.16
2019-02-14T03:13:34.992Z,96224.87
2019-02-14T03:16:03.688Z,96229.45
2019-02-14T03:18:32.192Z,96226.54
2019-02-14T03:21:00.701Z,96227.37
2019-02-14T03:23:29.325Z,96231.58
2019-02-14T03:25:57.950Z,96238.76
2019-02-14T03:28:26.552Z,96237.52
2019-02-14T03:30:55.186Z,96226.67
2019-02-14T03:33:23.679Z,96233.20
2019-02-14T03:35:52.218Z,96223.89
2019-02-14T03:38:20.848Z,96219.18
2019-02-14T03:40:49.478Z,96208.35
2019-02-14T03:43:18.012Z,96204.64
2019-02-14T03:45:46.506Z,96209.78
2019-02-14T03:48:15.138Z,96208.30
2019-02-14T03:50:43.792Z,96200.14
2019-02-14T03:53:12.362Z,96208.22
2019-02-14T03:55:40.846Z,96200.23
2019-02-14T03:58:09.517Z,96206.95
2019-02-14T04:00:38.129Z,96207.61
2019-02-14T04:03:06.678Z,96208.48
2019-02-14T04:05:35.220Z,96207.03
2019-02-14T04:08:03.835Z,96201.12
2019-02-14T04:10:32.460Z,96203.25
2019-02-14T04:13:00.980Z,96210.41
2019-02-14T04:15:29.481Z,96209.08
2019-02-14T04:17:58.113Z,96207.38
2019-02-14T04:20:26.801Z,96206.25
2019-02-14T04:22:55.290Z,96208.95
2019-02-14T04:25:23.771Z,96217.69
2019-02-14T04:27:52.478Z,96215.20
2019-02-14T04:30:21.096Z,96203.48
2019-02-14T04:32:49.585Z,96203.48
2019-02-14T04:35:18.232Z,96203.34
2019-02-14T04:37:46.969Z,96206.86
2019-02-14T04:40:15.610Z,96204.46
2019-02-14T04:42:44.154Z,96211.95
2019-02-14T04:45:13.530Z,96206.39
2019-02-14T04:47:42.563Z,96207.82
2019-02-14T04:50:11.898Z,96203.23
2019-02-14T04:52:40.539Z,96201.22
2019-02-14T04:55:10.763Z,96201.35
2019-02-14T04:57:39.393Z,96214.44
2019-02-14T05:00:15.921Z,96208.02
2019-02-14T05:02:44.637Z,96210.61
2019-02-14T05:05:13.374Z,96201.11
2019-02-14T05:07:42.100Z,96202.47
2019-02-14T05:10:11.841Z,96211.30
2019-02-14T05:12:40.487Z,96209.96
2019-02-14T05:15:10.699Z,96211.77
2019-02-14T05:17:39.330Z,96204.41
2019-02-14T05:20:12.663Z,96216.77
2019-02-14T05:22:41.499Z,96212.98
2019-02-14T05:25:10.434Z,96215.66
2019-02-14T05:27:44.920Z,96212.23
2019-02-14T05:30:18.505Z,96222.19
2019-02-14T05:32:47.003Z,96227.04
2019-02-14T05:35:15.560Z,96228.00
2019-02-14T05:37:44.226Z,96235.45
2019-02-14T05:40:12.956Z,96232.86
2019-02-14T05:42:41.439Z,96235.52
2019-02-14T05:45:12.224Z,96238.00
2019-02-14T05:47:40.846Z,96240.85
2019-02-14T05:50:14.464Z,96244.95
2019-02-14T05:52:43.078Z,96247.14
2019-02-14T05:55:12.614Z,96239.23
2019-02-14T05:57:41.279Z,96240.93
2019-02-14T06:00:15.227Z,96255.10
2019-02-14T06:02:43.721Z,96255.10
2019-02-14T06:05:12.365Z,96247.50
2019-02-14T06:07:41.036Z,96255.09
2019-02-14T06:10:11.064Z,96244.00
2019-02-14T06:12:39.696Z,96246.84
2019-02-14T06:15:10.467Z,96242.02
2019-02-14T06:17:39.091Z,96236.34
2019-02-14T06:20:12.136Z,96245.25
2019-02-14T06:22:40.798Z,96236.19
2019-02-14T06:25:10.940Z,96244.41
2019-02-14T06:27:39.482Z,96249.43
2019-02-14T06:30:13.938Z,96245.02
2019-02-14T06:32:42.568Z,96248.94
2019-02-14T06:35:11.992Z,96240.78
2019-02-14T06:37:40.591Z,96242.46
2019-02-14T06:40:13.732Z,96246.09
2019-02-14T06:42:42.477Z,96243.08
2019-02-14T06:45:16.488Z,96242.80
2019-02-14T06:47:45.122Z,96251.23
2019-02-14T06:50:13.749Z,96243.87
2019-02-14T06:52:42.279Z,96246.19
2019-02-14T06:55:11.010Z,96254.98
2019-02-14T06:57:39.634Z,96241.13
2019-02-14T07:00:11.210Z,96246.13
2019-02-14T07:02:39.762Z,96236.99
2019-02-14T07:05:09.789Z,96239.75
2019-02-14T07:07:38.473Z,96240.75
2019-02-14T07:10:09.200Z,96233.94
2019-02-14T07:12:37.701Z,96224.49
2019-02-14T07:15:12.334Z,96221.80
2019-02-14T07:17:41.085Z,96221.61
2019-02-14T07:20:12.351Z,96216.05
2019-02-14T07:22:40.888Z,96205.59
2019-02-14T07:25:11.389Z,96210.45
2019-02-14T07:27:40.026Z,96212.80
2019-02-14T07:30:22.363Z,96204.55
2019-02-14T07:32:50.981Z,96190.25
2019-02-14T07:35:19.709Z,96198.20
2019-02-14T07:37:48.386Z,96189.16
2019-02-14T07:40:16.997Z,96183.22
2019-02-14T07:42:45.674Z,96171.70
2019-02-14T07:45:18.339Z,96178.47
2019-02-14T07:47:46.886Z,96178.91
2019-02-14T07:50:18.163Z,96168.08
2019-02-14T07:52:46.848Z,96174.88
2019-02-14T07:55:15.613Z,96167.65
2019-02-14T07:57:44.371Z,96169.67
2019-02-14T08:00:15.950Z,96174.52
2019-02-14T08:02:44.587Z,96174.84
2019-02-14T08:05:13.222Z,96161.34
2019-02-14T08:07:41.813Z,96152.08
2019-02-14T08:10:15.525Z,96160.22
2019-02-14T08:12:44.077Z,96156.22
2019-02-14T08:15:14.044Z,96151.24
2019-02-14T08:17:42.679Z,96145.06
2019-02-14T08:20:13.415Z,96144.35
2019-02-14T08:22:42.249Z,96142.58
2019-02-14T08:25:12.681Z,96136.05
2019-02-14T08:27:41.312Z,96127.77
2019-02-14T08:30:17.052Z,96133.88
2019-02-14T08:32:45.539Z,96132.33
2019-02-14T08:35:14.105Z,96137.82
2019-02-14T08:37:45.433Z,96136.13
2019-02-14T08:40:21.981Z,96128.17
2019-02-14T08:42:50.689Z,96123.35
2019-02-14T08:45:19.173Z,96131.95
2019-02-14T08:47:47.802Z,96134.91
2019-02-14T08:50:16.340Z,96134.69
2019-02-14T08:52:44.955Z,96129.66
2019-02-14T08:55:13.583Z,96132.97
2019-02-14T08:57:42.188Z,96132.19
2019-02-14T09:00:15.288Z,96137.23
2019-02-14T09:02:43.902Z,96122.09
2019-02-14T09:05:12.738Z,96125.78
2019-02-14T09:07:41.414Z,96114.54
2019-02-14T09:10:14.873Z,96118.04
2019-02-14T09:12:43.543Z,96117.66
2019-02-14T09:15:13.469Z,96123.47
2019-02-14T09:17:42.114Z,96121.34
2019-02-14T09:20:18.376Z,96107.38
2019-02-14T09:22:47.010Z,96096.69
2019-02-14T09:25:15.627Z,96095.56
2019-02-14T09:27:44.165Z,96099.20
2019-02-14T09:30:14.091Z,96099.58
2019-02-14T09:32:42.761Z,96093.58
2019-02-14T09:35:11.427Z,96091.05
2019-02-14T09:37:39.916Z,96095.71
2019-02-14T09:40:16.928Z,96085.43
2019-02-14T09:42:45.565Z,96067.16
2019-02-14T09:45:14.786Z,96075.87
2019-02-14T09:47:43.327Z,96083.06
2019-02-14T09:50:13.459Z,96070.08
2019-02-14T09:52:42.385Z,96060.53
2019-02-14T09:55:14.497Z,96062.82
2019-02-14T09:57:43.030Z,96057.66
2019-02-14T10:00:16.309Z,96060.00
2019-02-14T10:02:45.009Z,96053.63
2019-02-14T10:05:14.596Z,96045.20
2019-02-14T10:07:43.149Z,96047.17
2019-02-14T10:10:17.372Z,96046.25
2019-02-14T10:12:53.702Z,96043.75
2019-02-14T10:15:22.289Z,96026.77
2019-02-14T10:17:50.903Z,96031.79
2019-02-14T10:20:19.615Z,96034.72
2019-02-14T10:22:48.104Z,96017.98
2019-02-14T10:25:16.957Z,96011.48
2019-02-14T10:27:45.574Z,96003.59
2019-02-14T10:30:18.733Z,95994.05
2019-02-14T10:32:47.325Z,95980.71
2019-02-14T10:35:15.820Z,95981.16
2019-02-14T10:37:44.529Z,95981.88
2019-02-14T10:40:15.000Z,95982.00
2019-02-14T10:42:43.547Z,95965.00
2019-02-14T10:45:14.266Z,95954.37
2019-02-14T10:47:42.922Z,95950.78
2019-02-14T10:50:11.847Z,95957.20
2019-02-14T10:52:40.480Z,95950.88
2019-02-14T10:55:11.214Z,95946.59
2019-02-14T10:57:39.768Z,95950.99
2019-02-14T11:00:17.890Z,95959.58
2019-02-14T11:02:47.093Z,95948.78
2019-02-14T11:05:16.614Z,95944.27
2019-02-14T11:07:45.309Z,95941.55
2019-02-14T11:10:15.153Z,95943.45
2019-02-14T11:12:43.769Z,95948.27
2019-02-14T11:15:17.707Z,95935.48
2019-02-14T11:17:46.262Z,95939.55
2019-02-14T11:20:15.277Z,95940.43
2019-02-14T11:22:44.184Z,95936.11
2019-02-14T11:25:33.879Z,95929.95
2019-02-14T11:28:02.484Z,95943.27
2019-02-14T11:30:31.186Z,95931.64
2019-02-14T11:32:59.739Z,95927.36
2019-02-14T11:35:28.341Z,95925.94
2019-02-14T11:37:57.013Z,95916.94
2019-02-14T11:40:25.658Z,95924.58
2019-02-14T11:42:54.161Z,95925.65
2019-02-14T11:45:24.190Z,95912.11
2019-02-14T11:47:52.829Z,95910.16
2019-02-14T11:50:21.522Z,95904.30
2019-02-14T11:52:50.010Z,95913.74
2019-02-14T11:55:18.499Z,95905.66
2019-02-14T11:57:47.127Z,95891.37
2019-02-14T12:00:24.663Z,95892.73
2019-02-14T12:02:55.876Z,95890.28
2019-02-14T12:05:29.455Z,95888.61
2019-02-14T12:07:58.107Z,95883.10
2019-02-14T12:10:26.594Z,95881.34
2019-02-14T12:12:55.212Z,95887.47
2019-02-14T12:15:23.862Z,95878.66
2019-02-14T12:17:52.360Z,95875.47
2019-02-14T12:20:20.834Z,95861.80
2019-02-14T12:22:49.527Z,95855.57
2019-02-14T12:25:23.796Z,95865.05
2019-02-14T12:27:52.352Z,95871.67
2019-02-14T12:30:21.016Z,95866.31
2019-02-14T12:32:49.633Z,95863.55
2019-02-14T12:35:18.252Z,95872.11
2019-02-14T12:37:46.788Z,95875.21
2019-02-14T12:40:15.481Z,95870.53
2019-02-14T12:42:44.099Z,95874.86
2019-02-14T12:47:45.837Z,95868.47
2019-02-14T12:50:14.447Z,95872.20
2019-02-14T12:52:43.072Z,95869.91
2019-02-14T12:55:11.710Z,95876.94
2019-02-14T12:57:40.339Z,95875.43
2019-02-14T13:00:17.711Z,95882.30
2019-02-14T13:02:46.266Z,95873.25
2019-02-14T13:05:14.811Z,95869.72
2019-02-14T13:07:43.744Z,95876.59
2019-02-14T13:10:14.581Z,95872.97
2019-02-14T13:12:43.133Z,95862.33
2019-02-14T13:15:17.541Z,95863.06
2019-02-14T13:17:46.163Z,95863.98
2019-02-14T13:20:14.793Z,95853.78
2019-02-14T13:22:43.328Z,95853.91
2019-02-14T13:25:12.739Z,95859.92
2019-02-14T13:27:41.355Z,95847.89
2019-02-14T13:30:15.763Z,95856.94
2019-02-14T13:32:44.371Z,95853.97
2019-02-14T13:35:13.304Z,95851.77
2019-02-14T13:37:42.083Z,95868.83
2019-02-14T13:40:10.712Z,95864.66
2019-02-14T13:42:39.332Z,95859.64
2019-02-14T13:45:14.333Z,95859.61
2019-02-14T13:47:42.859Z,95857.21
2019-02-14T13:50:12.791Z,95858.53
2019-02-14T13:52:41.447Z,95862.89
2019-02-14T13:55:11.175Z,95865.00
2019-02-14T13:57:40.108Z,95870.02
2019-02-14T14:00:14.799Z,95856.55
2019-02-14T14:02:43.421Z,95858.08
2019-02-14T14:05:12.043Z,95846.68
2019-02-14T14:07:40.827Z,95852.02
2019-02-14T14:10:10.200Z,95859.15
2019-02-14T14:12:38.754Z,95852.41
2019-02-14T14:15:09.416Z,95850.35
2019-02-14T14:17:38.034Z,95837.21
2019-02-14T14:20:08.491Z,95847.27
2019-02-14T14:22:36.987Z,95847.70
2019-02-14T14:25:07.425Z,95837.34
2019-02-14T14:27:36.069Z,95841.17
2019-02-14T14:30:07.741Z,95842.98
2019-02-14T14:32:36.224Z,95832.95
2019-02-14T14:35:06.354Z,95835.03
2019-02-14T14:37:35.021Z,95836.61
2019-02-14T14:40:04.759Z,95826.94
2019-02-14T14:42:34.948Z,95836.37
2019-02-14T14:45:05.526Z,95837.01
2019-02-14T14:47:34.146Z,95842.44
2019-02-14T14:50:02.781Z,95829.45
2019-02-14T14:52:31.571Z,95835.30
2019-02-14T14:55:00.037Z,95831.42
2019-02-14T14:57:28.776Z,95840.97
2019-02-14T14:59:57.450Z,95843.48
2019-02-14T15:02:26.000Z,95852.85
2019-02-14T15:04:54.484Z,95850.51
2019-02-14T15:07:23.167Z,95837.31
2019-02-14T15:09:57.493Z,95846.47
2019-02-14T15:12:22.016Z,95854.78
2019-02-14T15:14:50.625Z,95855.39
2019-02-14T15:17:19.287Z,95851.34
2019-02-14T15:19:47.918Z,95849.80
2019-02-14T15:22:16.443Z,95855.04
2019-02-14T15:24:45.041Z,95856.59
2019-02-14T15:27:13.674Z,95852.13
2019-02-14T15:29:42.180Z,95859.50
2019-02-14T15:32:10.840Z,95869.56
2019-02-14T15:34:39.460Z,95863.77
2019-02-14T15:37:07.960Z,95866.70
2019-02-14T15:39:36.493Z,95869.00
2019-02-14T15:42:05.129Z,95869.20
2019-02-14T15:44:33.774Z,95870.76
2019-02-14T15:47:02.320Z,95873.66
2019-02-14T15:49:30.870Z,95866.69
2019-02-14T15:51:59.495Z,95873.08
2019-02-14T15:54:28.172Z,95881.22
2019-02-14T15:56:59.393Z,95876.58
2019-02-14T15:59:28.898Z,95881.81
2019-02-14T16:01:57.645Z,95882.59
2019-02-14T16:04:27.099Z,95883.34
2019-02-14T16:06:56.486Z,95874.25
2019-02-14T16:09:25.132Z,95878.52
2019-02-14T16:11:55.360Z,95876.95
2019-02-14T16:14:23.959Z,95883.16
2019-02-14T16:16:52.588Z,95881.62
2019-02-14T16:19:21.211Z,95887.81
2019-02-14T16:21:51.523Z,95889.55
2019-02-14T16:24:20.180Z,95881.61
2019-02-14T16:26:48.797Z,95891.09
2019-02-14T16:29:17.460Z,95892.65
2019-02-14T16:31:46.120Z,95879.88
2019-02-14T16:34:14.641Z,95883.17
2019-02-14T16:36:43.346Z,95892.83
2019-02-14T16:39:12.050Z,95884.53
2019-02-14T16:41:40.544Z,95894.39
2019-02-14T16:44:09.062Z,95896.12
2019-02-14T16:46:37.686Z,95888.20
2019-02-14T16:49:06.178Z,95885.09
2019-02-14T16:51:34.880Z,95885.69
2019-02-14T16:54:03.500Z,95889.35
2019-02-14T16:56:31.990Z,95876.59
2019-02-14T16:59:00.532Z,95880.08
2019-02-14T17:01:29.186Z,95890.70
2019-02-14T17:03:57.821Z,95886.44
2019-02-14T17:06:26.416Z,95888.00
2019-02-14T17:08:54.985Z,95875.98
2019-02-14T17:11:23.612Z,95892.05
2019-02-14T17:13:52.443Z,95878.52
2019-02-14T17:16:20.989Z,95880.45
2019-02-14T17:18:49.496Z,95887.99
2019-02-14T17:21:18.137Z,95881.59
2019-02-14T17:23:46.754Z,95880.82
2019-02-14T17:26:15.241Z,95874.05
2019-02-14T17:28:43.917Z,95882.53
2019-02-14T17:31:12.422Z,95878.51
2019-02-14T17:33:40.911Z,95880.44
2019-02-14T17:36:09.595Z,95876.55
2019-02-14T17:38:38.206Z,95871.14
2019-02-14T17:41:06.789Z,95872.11
2019-02-14T17:43:35.547Z,95867.84
2019-02-14T17:46:04.179Z,95868.42
2019-02-14T17:48:32.809Z,95859.73
2019-02-14T17:51:01.338Z,95875.19
2019-02-14T17:53:29.834Z,95862.84
2019-02-14T17:55:58.460Z,95868.63
2019-02-14T17:58:27.129Z,95870.34
2019-02-14T18:00:55.696Z,95856.64
2019-02-14T18:03:24.209Z,95872.88
2019-02-14T18:05:52.867Z,95867.27
2019-02-14T18:08:21.348Z,95856.08
2019-02-14T18:10:54.874Z,95847.17
2019-02-14T18:13:20.373Z,95841.55
2019-02-14T18:15:48.867Z,95839.23
2019-02-14T18:18:17.367Z,95839.43
2019-02-14T18:20:46.030Z,95838.86
2019-02-14T18:23:14.661Z,95837.70
2019-02-14T18:25:43.173Z,95835.36
2019-02-14T18:28:11.848Z,95843.28
2019-02-14T18:30:40.490Z,95846.97
2019-02-14T18:33:09.113Z,95850.09
2019-02-14T18:35:37.645Z,95848.33
2019-02-14T18:38:06.198Z,95844.06
2019-02-14T18:40:34.822Z,95852.19
2019-02-14T18:43:03.485Z,95855.88
2019-02-14T18:45:32.207Z,95853.53
2019-02-14T18:48:00.834Z,95849.69
2019-02-14T18:50:29.504Z,95851.04
2019-02-14T18:52:58.075Z,95850.83
2019-02-14T18:55:26.701Z,95859.36
2019-02-14T18:57:55.591Z,95858.78
2019-02-14T19:00:24.075Z,95852.80
2019-02-14T19:02:52.630Z,95849.31
2019-02-14T19:05:21.294Z,95848.33
2019-02-14T19:07:49.919Z,95844.84
2019-02-14T19:10:18.500Z,95842.14
2019-02-14T19:12:47.083Z,95838.28
2019-02-14T19:15:15.700Z,95837.13
2019-02-14T19:17:44.320Z,95835.57
2019-02-14T19:20:13.954Z,95836.52
2019-02-14T19:22:42.764Z,95829.58
2019-02-14T19:25:11.617Z,95836.15
2019-02-14T19:27:40.217Z,95827.25
2019-02-14T19:30:10.941Z,95826.27
2019-02-14T19:32:39.651Z,95829.75
2019-02-14T19:35:09.434Z,95834.22
2019-02-14T19:37:37.986Z,95825.52
2019-02-14T19:40:08.331Z,95828.40
2019-02-14T19:42:36.962Z,95820.69
2019-02-14T19:45:10.146Z,95825.89
2019-02-14T19:47:38.649Z,95831.89
2019-02-14T19:50:09.839Z,95828.03
2019-02-14T19:52:38.467Z,95821.06
2019-02-14T19:55:11.142Z,95821.84
2019-02-14T19:57:42.578Z,95816.63
2019-02-14T20:00:17.561Z,95813.34
2019-02-14T20:02:46.193Z,95805.80
2019-02-14T20:05:14.751Z,95803.67
2019-02-14T20:07:43.354Z,95784.15
2019-02-14T20:10:15.910Z,95797.48
2019-02-14T20:12:44.534Z,95787.03
2019-02-14T20:15:18.776Z,95794.94
2019-02-14T20:17:47.347Z,95799.41
2019-02-14T20:20:15.958Z,95804.03
2019-02-14T20:22:44.900Z,95809.08
2019-02-14T20:25:27.978Z,95817.20
2019-02-14T20:27:56.756Z,95817.77
2019-02-14T20:30:25.386Z,95817.41
2019-02-14T20:33:03.930Z,95823.97
2019-02-14T20:35:24.410Z,95818.92
2019-02-14T20:37:52.964Z,95824.95
2019-02-14T20:40:21.608Z,95827.83
2019-02-14T20:42:50.284Z,95820.48
2019-02-14T20:45:18.841Z,95822.81
2019-02-14T20:47:48.486Z,95821.45
2019-02-14T20:50:16.983Z,95818.95
2019-02-14T20:52:45.567Z,95821.26
2019-02-14T20:55:20.241Z,95828.02
2019-02-14T20:57:48.892Z,95825.32
2019-02-14T21:00:21.832Z,95824.37
2019-02-14T21:02:50.380Z,95815.47
2019-02-14T21:05:19.072Z,95806.17
2019-02-14T21:07:47.703Z,95812.97
2019-02-14T21:10:16.274Z,95812.17
2019-02-14T21:12:44.789Z,95802.13
2019-02-14T21:15:13.426Z,95802.50
2019-02-14T21:17:42.059Z,95797.48
2019-02-14T21:20:12.547Z,95784.33
2019-02-14T21:22:41.095Z,95785.28
2019-02-14T21:25:09.999Z,95787.42
2019-02-14T21:27:38.562Z,95791.67
2019-02-14T21:30:14.668Z,95798.65
2019-02-14T21:32:43.319Z,95791.88
2019-02-14T21:35:11.877Z,95791.68
2019-02-14T21:37:40.361Z,95788.41
2019-02-14T21:40:14.216Z,95784.92
2019-02-14T21:42:42.840Z,95779.68
2019-02-14T21:45:13.291Z,95780.66
2019-02-14T21:47:41.994Z,95781.44
2019-02-14T21:50:14.974Z,95782.98
2019-02-14T21:52:43.713Z,95782.41
2019-02-14T21:55:13.417Z,95771.39
2019-02-14T21:57:42.037Z,95782.22
2019-02-14T22:00:19.551Z,95782.02
2019-02-14T22:02:48.856Z,95782.41
2019-02-14T22:05:24.015Z,95781.03
2019-02-14T22:07:48.100Z,95769.27
2019-02-14T22:10:16.644Z,95770.21
2019-02-14T22:12:45.210Z,95764.42
2019-02-14T22:15:20.040Z,95767.30
2019-02-14T22:17:48.674Z,95771.56
2019-02-14T22:20:17.285Z,95768.48
2019-02-14T22:22:45.948Z,95767.13
2019-02-14T22:25:14.582Z,95770.04
2019-02-14T22:27:43.211Z,95775.62
2019-02-14T22:30:18.718Z,95764.43
2019-02-14T22:32:47.354Z,95766.73
2019-02-14T22:35:15.977Z,95769.06
2019-02-14T22:37:44.652Z,95760.55
2019-02-14T22:40:14.874Z,95759.59
2019-02-14T22:42:47.553Z,95758.23
2019-02-14T22:45:15.427Z,95769.27
2019-02-14T22:47:45.263Z,95766.93
2019-02-14T22:50:14.189Z,95761.92
2019-02-14T22:52:50.883Z,95772.75
2019-02-14T22:55:19.520Z,95761.72
2019-02-14T22:57:48.392Z,95759.59
2019-02-14T23:00:24.520Z,95766.75
2019-02-14T23:02:53.229Z,95761.31
2019-02-14T23:05:21.865Z,95754.75
2019-02-14T23:07:50.507Z,95757.86
2019-02-14T23:10:19.049Z,95752.62
2019-02-14T23:12:55.481Z,95755.73
2019-02-14T23:15:18.380Z,95755.16
2019-02-14T23:17:47.053Z,95745.66
2019-02-14T23:20:15.608Z,95749.54
2019-02-14T23:22:44.206Z,95751.27
2019-02-14T23:25:14.501Z,95756.30
2019-02-14T23:27:42.988Z,95753.59
2019-02-14T23:30:14.103Z,95759.97
2019-02-14T23:32:42.784Z,95754.94
2019-02-14T23:35:11.362Z,95755.72
2019-02-14T23:37:40.012Z,95754.37
2019-02-14T23:40:08.973Z,95753.78
2019-02-14T23:42:37.614Z,95760.36
2019-02-14T23:45:08.950Z,95755.52
2019-02-14T23:47:37.472Z,95752.44
2019-02-14T23:50:08.236Z,95760.34
2019-02-14T23:52:36.860Z,95756.09
2019-02-14T23:55:07.221Z,95762.47
2019-02-14T23:57:35.786Z,95759.76
